Time;durP1;ratioP1;P1;durP2;ratioP2;P2;SDS_P1;SDS_P2;PMS_P1;PMS_P2;Temp;Humidity;BMP_temperature;BMP_pressure;BME280_temperature;BME280_humidity;BME280_pressure;Samples;Min_cycle;Max_cycle;Signal;HPM_P1;HPM_P2
2023/05/30 00:02:22;;;;;;;4.33;3.13;;;14.70;99.90;;;;;;4966496;28;20510;-84
2023/05/30 00:04:49;;;;;;;6.17;4.60;;;14.70;99.90;;;;;;4965016;28;20473;-83
2023/05/30 00:07:16;;;;;;;11.13;4.30;;;14.70;99.90;;;;;;4962733;28;21000;-85
2023/05/30 00:09:43;;;;;;;4.00;3.27;;;14.70;99.90;;;;;;4967073;28;20474;-83
2023/05/30 00:12:11;;;;;;;9.40;3.77;;;14.60;99.90;;;;;;4962134;28;20492;-87
2023/05/30 00:14:38;;;;;;;3.70;3.30;;;14.60;99.90;;;;;;4962530;28;20460;-83
2023/05/30 00:17:05;;;;;;;8.53;3.83;;;14.60;99.90;;;;;;4962422;28;20429;-86
2023/05/30 00:19:32;;;;;;;3.20;2.87;;;14.50;99.90;;;;;;4965635;28;20517;-82
2023/05/30 00:21:59;;;;;;;7.20;4.40;;;14.50;99.90;;;;;;4964962;28;20447;-83
2023/05/30 00:24:28;;;;;;;6.37;3.87;;;14.40;99.90;;;;;;4956400;28;20477;-85
2023/05/30 00:26:55;;;;;;;7.70;3.70;;;14.40;99.90;;;;;;4963394;29;20439;-85
2023/05/30 00:29:22;;;;;;;4.90;3.07;;;14.40;99.90;;;;;;4965673;28;20443;-84
2023/05/30 00:31:49;;;;;;;7.90;3.53;;;14.40;99.90;;;;;;4959596;28;20523;-86
2023/05/30 00:34:16;;;;;;;4.77;3.50;;;14.30;99.90;;;;;;4972303;28;20236;-85
2023/05/30 00:36:43;;;;;;;5.47;4.03;;;14.30;99.90;;;;;;4974171;28;20448;-83
2023/05/30 00:39:10;;;;;;;4.93;4.05;;;14.30;99.90;;;;;;4971767;28;20221;-88
2023/05/30 00:41:37;;;;;;;4.88;3.83;;;14.30;99.90;;;;;;4979315;28;20491;-85
2023/05/30 00:44:04;;;;;;;6.53;4.00;;;14.20;99.90;;;;;;4965313;28;20270;-84
2023/05/30 00:46:32;;;;;;;6.35;4.07;;;14.20;99.90;;;;;;4969087;28;20445;-83
2023/05/30 00:49:00;;;;;;;10.13;4.03;;;14.20;99.90;;;;;;4968237;28;20207;-83
2023/05/30 00:51:28;;;;;;;12.25;3.85;;;14.20;99.90;;;;;;4970263;29;20476;-84
2023/05/30 00:53:56;;;;;;;8.00;4.27;;;14.30;99.90;;;;;;4967546;29;20530;-82
2023/05/30 00:56:23;;;;;;;6.30;4.00;;;14.30;99.90;;;;;;4968627;28;20509;-84
2023/05/30 00:58:53;;;;;;;5.60;3.77;;;14.30;99.90;;;;;;4966503;28;20274;-83
2023/05/30 01:01:23;;;;;;;3.37;2.90;;;14.40;99.90;;;;;;4969530;28;20645;-87
2023/05/30 01:03:51;;;;;;;8.57;4.07;;;14.50;99.90;;;;;;4967062;29;20437;-84
2023/05/30 01:06:19;;;;;;;8.75;3.70;;;14.40;99.90;;;;;;4966674;28;20207;-86
2023/05/30 01:08:47;;;;;;;5.35;3.63;;;14.40;99.90;;;;;;4966990;28;20211;-83
2023/05/30 01:11:31;;;;;;;7.57;3.83;;;14.40;99.90;;;;;;4962727;28;20235;-83
2023/05/30 01:14:02;;;;;;;5.32;3.67;;;14.50;99.90;;;;;;4962129;28;20440;-82
2023/05/30 01:16:39;;;;;;;6.70;3.60;;;14.40;99.90;;;;;;4955433;29;20208;-83
2023/05/30 01:19:28;;;;;;;4.22;3.90;;;14.50;99.90;;;;;;4961785;28;20641;-84
2023/05/30 01:22:16;;;;;;;6.87;3.63;;;14.50;99.90;;;;;;4967971;28;20215;-86
2023/05/30 01:24:57;;;;;;;10.67;3.07;;;14.50;99.90;;;;;;4965418;28;20429;-85
2023/05/30 01:27:47;;;;;;;5.00;3.87;;;14.50;99.90;;;;;;4971449;28;20429;-84
2023/05/30 01:30:15;;;;;;;5.20;3.30;;;14.70;99.90;;;;;;4973685;28;20456;-84
2023/05/30 01:32:43;;;;;;;6.07;3.13;;;14.60;99.90;;;;;;4969359;28;20497;-85
2023/05/30 01:35:28;;;;;;;7.38;3.50;;;14.40;99.90;;;;;;4969780;28;20243;-85
2023/05/30 01:37:55;;;;;;;4.35;3.08;;;14.50;99.90;;;;;;4969274;28;20215;-84
2023/05/30 01:40:25;;;;;;;6.65;3.95;;;14.60;99.90;;;;;;4962362;28;20214;-84
2023/05/30 01:43:23;;;;;;;8.35;3.65;;;14.40;99.90;;;;;;4971453;28;20246;-84
2023/05/30 01:46:11;;;;;;;5.40;3.30;;;14.40;99.90;;;;;;4956629;28;20192;-84
2023/05/30 01:48:54;;;;;;;4.10;3.67;;;14.30;99.90;;;;;;4967108;28;20445;-84
2023/05/30 01:51:36;;;;;;;3.90;3.40;;;14.30;99.90;;;;;;4961078;28;21562;-83
2023/05/30 01:54:06;;;;;;;11.40;4.40;;;14.30;99.90;;;;;;4959542;28;20456;-84
2023/05/30 01:56:34;;;;;;;8.95;3.90;;;14.30;99.90;;;;;;4961679;28;20649;-84
2023/05/30 01:59:05;;;;;;;7.93;4.15;;;14.40;99.90;;;;;;4962857;28;20207;-83
2023/05/30 02:01:33;;;;;;;5.13;3.65;;;14.50;99.90;;;;;;4958477;28;20230;-86
2023/05/30 02:04:00;;;;;;;5.78;2.88;;;14.30;99.90;;;;;;4966084;28;20203;-85
2023/05/30 02:06:28;;;;;;;7.23;3.73;;;14.30;99.90;;;;;;4953713;29;20208;-83
2023/05/30 02:08:55;;;;;;;5.43;4.28;;;14.30;99.90;;;;;;4961434;28;20777;-85
2023/05/30 02:11:22;;;;;;;5.40;2.67;;;14.20;99.90;;;;;;4961831;28;20245;-85
2023/05/30 02:13:49;;;;;;;6.90;3.70;;;14.30;99.90;;;;;;4967600;28;20484;-85
2023/05/30 02:16:18;;;;;;;7.07;4.63;;;14.20;99.90;;;;;;4974162;28;20424;-86
2023/05/30 02:18:45;;;;;;;9.20;4.60;;;14.20;99.90;;;;;;4975931;28;20238;-83
2023/05/30 02:21:12;;;;;;;6.90;4.57;;;14.00;99.90;;;;;;4966400;29;20465;-84
2023/05/30 02:23:39;;;;;;;6.55;3.75;;;13.70;99.90;;;;;;4970639;28;20198;-85
2023/05/30 02:26:06;;;;;;;7.72;4.85;;;13.50;99.90;;;;;;4969632;28;20225;-82
2023/05/30 02:28:34;;;;;;;5.63;3.17;;;13.40;99.90;;;;;;4973085;28;20207;-83
2023/05/30 02:31:02;;;;;;;5.88;3.45;;;13.30;99.90;;;;;;4975251;28;20206;-82
2023/05/30 02:33:30;;;;;;;3.20;2.90;;;13.20;99.90;;;;;;4968931;28;20287;-86
2023/05/30 02:35:56;;;;;;;5.75;3.22;;;13.20;99.90;;;;;;4975480;28;20211;-86
2023/05/30 02:38:24;;;;;;;5.75;2.95;;;13.30;99.90;;;;;;4973294;28;20270;-82
2023/05/30 02:40:51;;;;;;;4.50;4.10;;;13.30;99.90;;;;;;4971727;28;20207;-86
2023/05/30 02:43:19;;;;;;;6.03;3.53;;;13.30;99.90;;;;;;4964800;28;20523;-83
2023/05/30 02:45:47;;;;;;;9.32;4.20;;;13.30;99.90;;;;;;4966910;28;20459;-84
2023/05/30 02:48:14;;;;;;;6.85;3.80;;;13.20;99.90;;;;;;4967640;28;20221;-85
2023/05/30 02:50:41;;;;;;;11.82;4.28;;;13.20;99.90;;;;;;4968971;28;20282;-85
2023/05/30 02:53:08;;;;;;;5.68;3.20;;;13.10;99.90;;;;;;4964450;28;20235;-82
2023/05/30 02:55:36;;;;;;;8.18;3.75;;;13.10;99.90;;;;;;4969197;28;20214;-84
2023/05/30 02:58:03;;;;;;;8.57;3.40;;;13.00;99.90;;;;;;4973529;28;20227;-85
2023/05/30 03:00:30;;;;;;;8.30;3.55;;;13.00;99.90;;;;;;4966383;28;20414;-85
2023/05/30 03:02:57;;;;;;;10.63;5.70;;;12.90;99.90;;;;;;4967173;28;20584;-84
2023/05/30 03:05:25;;;;;;;4.80;3.33;;;13.10;99.90;;;;;;4967592;28;20525;-87
2023/05/30 03:07:52;;;;;;;10.25;3.83;;;13.00;99.90;;;;;;4967210;28;20290;-83
2023/05/30 03:10:19;;;;;;;6.60;4.43;;;12.90;99.90;;;;;;4967873;28;20218;-83
2023/05/30 03:12:46;;;;;;;4.78;3.55;;;12.90;99.90;;;;;;4964839;29;20272;-83
2023/05/30 03:15:13;;;;;;;8.27;3.70;;;12.90;99.90;;;;;;4964718;28;20215;-85
2023/05/30 03:17:42;;;;;;;12.57;3.95;;;13.00;99.90;;;;;;4966178;29;20215;-85
2023/05/30 03:20:09;;;;;;;4.00;3.60;;;13.00;99.90;;;;;;4966966;28;20207;-84
2023/05/30 03:22:37;;;;;;;9.43;3.40;;;13.10;99.90;;;;;;4964099;28;20222;-85
2023/05/30 03:25:05;;;;;;;9.82;3.15;;;13.10;99.90;;;;;;4965522;28;20530;-84
2023/05/30 03:27:31;;;;;;;13.93;4.40;;;13.20;99.90;;;;;;4966329;28;20275;-85
2023/05/30 03:29:59;;;;;;;10.73;4.20;;;13.40;99.90;;;;;;4966985;28;20218;-84
2023/05/30 03:32:26;;;;;;;9.85;4.43;;;13.80;99.90;;;;;;4964454;28;20577;-85
2023/05/30 03:34:54;;;;;;;14.50;4.43;;;14.10;99.90;;;;;;4965865;28;20199;-83
2023/05/30 03:37:21;;;;;;;6.38;4.68;;;14.40;99.90;;;;;;4962392;28;20270;-85
2023/05/30 03:39:48;;;;;;;4.90;3.03;;;14.60;99.90;;;;;;4964161;28;20210;-84
2023/05/30 03:42:15;;;;;;;8.52;3.25;;;14.70;99.90;;;;;;4966666;28;20196;-83
2023/05/30 03:44:42;;;;;;;8.75;4.50;;;14.70;99.90;;;;;;4968687;28;20219;-87
2023/05/30 03:47:09;;;;;;;11.10;3.60;;;14.70;99.90;;;;;;4970750;28;20204;-83
2023/05/30 03:49:36;;;;;;;4.00;2.70;;;14.70;99.90;;;;;;4970715;28;20442;-85
2023/05/30 03:52:04;;;;;;;10.73;3.87;;;14.60;99.90;;;;;;4964629;28;20477;-87
2023/05/30 03:54:31;;;;;;;6.97;4.43;;;14.60;99.90;;;;;;4963951;28;20454;-85
2023/05/30 03:56:58;;;;;;;7.00;3.83;;;14.80;99.90;;;;;;4964546;28;20774;-84
2023/05/30 03:59:26;;;;;;;10.80;4.03;;;14.90;99.90;;;;;;4964080;28;20451;-86
2023/05/30 04:01:53;;;;;;;15.07;4.20;;;15.00;99.90;;;;;;4964311;28;20408;-82
2023/05/30 04:04:20;;;;;;;9.80;4.07;;;15.20;99.90;;;;;;4958848;28;20446;-87
2023/05/30 04:06:48;;;;;;;8.07;3.90;;;15.00;99.90;;;;;;4967412;28;20500;-86
2023/05/30 04:09:15;;;;;;;8.13;3.57;;;15.00;99.90;;;;;;4964020;29;20421;-86
2023/05/30 04:11:42;;;;;;;5.60;4.03;;;14.90;99.90;;;;;;4962305;28;20452;-87
2023/05/30 04:14:09;;;;;;;8.33;3.80;;;14.60;99.90;;;;;;4963844;28;20670;-86
2023/05/30 04:16:36;;;;;;;7.03;4.10;;;14.50;99.90;;;;;;4965982;28;20443;-83
2023/05/30 04:19:02;;;;;;;7.57;4.50;;;14.30;99.90;;;;;;4974178;28;20457;-84
2023/05/30 04:21:29;;;;;;;6.37;4.47;;;14.40;99.90;;;;;;4972747;28;20467;-85
2023/05/30 04:23:56;;;;;;;8.23;3.03;;;14.20;99.90;;;;;;4968488;28;20455;-90
2023/05/30 04:26:25;;;;;;;4.17;2.70;;;14.20;99.90;;;;;;4963457;28;20503;-91
2023/05/30 04:28:57;;;;;;;6.60;3.53;;;14.10;99.90;;;;;;4960420;29;20468;-84
2023/05/30 04:31:24;;;;;;;4.47;3.20;;;14.10;99.90;;;;;;4961930;28;20462;-85
2023/05/30 04:33:54;;;;;;;5.70;3.03;;;14.10;99.90;;;;;;4966077;28;20299;-86
2023/05/30 04:36:23;;;;;;;14.95;3.33;;;14.20;99.90;;;;;;4962534;28;20415;-86
2023/05/30 04:38:52;;;;;;;10.90;5.33;;;14.10;99.90;;;;;;4965200;28;20214;-85
2023/05/30 04:41:24;;;;;;;6.40;4.00;;;14.30;99.90;;;;;;4966602;28;20447;-80
2023/05/30 04:43:57;;;;;;;5.87;3.20;;;14.30;99.90;;;;;;4974009;28;20449;-83
2023/05/30 04:46:32;;;;;;;6.47;3.83;;;14.30;99.90;;;;;;4963907;28;20727;-84
2023/05/30 04:49:00;;;;;;;4.00;3.65;;;14.30;99.90;;;;;;4965019;28;20448;-88
2023/05/30 04:51:28;;;;;;;9.13;3.60;;;14.20;99.90;;;;;;4960369;28;20306;-86
2023/05/30 04:53:56;;;;;;;7.30;4.20;;;14.10;99.90;;;;;;4967488;28;20447;-85
2023/05/30 04:56:22;;;;;;;7.47;3.40;;;14.10;99.90;;;;;;4967943;28;20199;-85
2023/05/30 04:58:53;;;;;;;15.03;4.40;;;14.10;99.90;;;;;;4969486;28;20506;-85
2023/05/30 05:01:23;;;;;;;10.13;4.80;;;14.20;99.90;;;;;;4966589;28;20755;-85
2023/05/30 05:03:51;;;;;;;5.77;4.10;;;14.30;99.90;;;;;;4967417;28;20506;-84
2023/05/30 05:06:18;;;;;;;6.90;3.50;;;14.40;99.90;;;;;;4974996;28;20487;-85
2023/05/30 05:08:45;;;;;;;5.13;2.80;;;14.60;99.90;;;;;;4964770;28;20204;-87
2023/05/30 05:11:13;;;;;;;7.27;4.10;;;14.60;99.90;;;;;;4966101;28;20461;-86
2023/05/30 05:13:41;;;;;;;8.83;3.57;;;14.70;99.90;;;;;;4967365;28;20485;-84
2023/05/30 05:16:08;;;;;;;7.73;3.97;;;14.80;99.90;;;;;;4964592;28;20451;-87
2023/05/30 05:18:35;;;;;;;6.80;3.33;;;14.80;99.90;;;;;;4962727;28;20659;-84
2023/05/30 05:21:02;;;;;;;8.63;3.43;;;14.80;99.90;;;;;;4966037;28;20459;-83
2023/05/30 05:23:30;;;;;;;7.43;5.00;;;14.90;99.90;;;;;;4960259;28;20897;-83
2023/05/30 05:25:57;;;;;;;10.23;5.93;;;14.90;99.90;;;;;;4964247;28;20467;-86
2023/05/30 05:28:24;;;;;;;6.20;3.67;;;15.00;99.90;;;;;;4962289;28;20424;-88
2023/05/30 05:30:54;;;;;;;9.10;4.40;;;15.10;99.90;;;;;;4980817;28;20478;-84
2023/05/30 05:33:21;;;;;;;6.13;2.77;;;15.10;99.90;;;;;;4966429;28;20454;-83
2023/05/30 05:35:49;;;;;;;7.47;4.53;;;15.20;99.90;;;;;;4950776;28;20431;-84
2023/05/30 05:38:16;;;;;;;6.37;3.77;;;15.30;99.90;;;;;;4962587;28;20647;-82
2023/05/30 05:40:44;;;;;;;11.40;3.17;;;15.50;99.90;;;;;;4959377;28;20433;-85
2023/05/30 05:43:11;;;;;;;50.30;9.23;;;15.50;99.90;;;;;;4960160;28;20543;-84
2023/05/30 05:45:38;;;;;;;10.87;3.43;;;15.60;99.90;;;;;;4961241;28;20461;-84
2023/05/30 05:48:05;;;;;;;10.33;3.80;;;15.70;99.90;;;;;;4967104;28;20461;-83
2023/05/30 05:50:32;;;;;;;7.83;2.60;;;15.80;99.90;;;;;;4984479;28;20418;-81
2023/05/30 05:52:59;;;;;;;5.77;3.17;;;16.00;99.90;;;;;;4976049;28;20773;-80
2023/05/30 05:55:26;;;;;;;6.53;3.40;;;16.40;99.90;;;;;;4975390;28;20429;-85
2023/05/30 05:57:53;;;;;;;9.70;2.90;;;16.40;99.90;;;;;;4972500;28;20470;-83
2023/05/30 06:00:23;;;;;;;4.73;3.43;;;16.30;99.90;;;;;;4966388;28;20690;-79
2023/05/30 06:02:51;;;;;;;7.30;3.07;;;16.30;99.90;;;;;;4966469;28;20787;-82
2023/05/30 06:05:19;;;;;;;22.73;4.17;;;16.60;99.90;;;;;;4964002;28;20700;-83
2023/05/30 06:07:45;;;;;;;7.30;3.00;;;16.50;99.90;;;;;;4963250;28;20444;-83
2023/05/30 06:10:13;;;;;;;8.03;4.40;;;16.40;99.90;;;;;;4954210;28;20547;-85
2023/05/30 06:12:40;;;;;;;9.50;3.73;;;16.50;99.90;;;;;;4967811;28;20514;-80
2023/05/30 06:15:07;;;;;;;6.67;2.50;;;16.70;99.90;;;;;;4964921;28;20713;-85
2023/05/30 06:17:35;;;;;;;9.53;3.37;;;17.00;99.90;;;;;;4965133;28;20431;-88
2023/05/30 06:20:02;;;;;;;3.80;2.60;;;17.10;99.90;;;;;;4960975;28;20784;-80
2023/05/30 06:22:29;;;;;;;4.43;2.50;;;17.40;99.90;;;;;;4954994;29;20597;-80
2023/05/30 06:24:56;;;;;;;12.90;3.10;;;17.60;99.90;;;;;;4965069;28;20433;-84
2023/05/30 06:27:23;;;;;;;14.23;3.03;;;17.90;99.90;;;;;;4963722;28;20491;-84
2023/05/30 06:29:52;;;;;;;7.63;3.07;;;18.00;99.90;;;;;;4964349;29;20420;-85
2023/05/30 06:32:18;;;;;;;8.90;3.20;;;18.20;99.90;;;;;;4962420;28;20759;-81
2023/05/30 06:34:46;;;;;;;6.40;2.73;;;18.30;99.90;;;;;;4963295;28;20441;-81
2023/05/30 06:37:14;;;;;;;5.47;2.73;;;18.40;99.90;;;;;;4961623;28;20669;-79
2023/05/30 06:39:41;;;;;;;5.70;3.40;;;18.50;99.90;;;;;;4963607;28;20450;-84
2023/05/30 06:42:09;;;;;;;7.40;2.90;;;18.90;99.90;;;;;;4963064;28;20570;-82
2023/05/30 06:44:37;;;;;;;9.67;3.93;;;18.80;99.90;;;;;;4962294;29;20753;-83
2023/05/30 06:47:04;;;;;;;7.77;4.60;;;19.00;99.90;;;;;;4964282;28;20461;-86
2023/05/30 06:49:32;;;;;;;5.60;2.37;;;18.80;99.90;;;;;;4960856;29;20445;-84
2023/05/30 06:51:59;;;;;;;5.90;2.97;;;19.10;99.90;;;;;;4962104;28;20424;-82
2023/05/30 06:54:26;;;;;;;8.27;2.90;;;19.30;99.90;;;;;;4962008;28;20479;-80
2023/05/30 06:56:53;;;;;;;6.20;2.50;;;19.80;99.90;;;;;;4959904;28;20412;-84
2023/05/30 06:59:20;;;;;;;8.13;4.70;;;20.60;99.90;;;;;;4961764;28;20744;-84
2023/05/30 07:01:47;;;;;;;4.60;3.00;;;21.80;99.90;;;;;;4968619;28;20449;-84
2023/05/30 07:04:14;;;;;;;11.73;4.60;;;22.60;99.90;;;;;;4972189;28;20445;-81
2023/05/30 07:06:41;;;;;;;7.43;3.07;;;23.00;99.90;;;;;;4970939;28;20666;-82
2023/05/30 07:09:08;;;;;;;3.33;3.03;;;23.70;99.90;;;;;;4964509;28;20431;-82
2023/05/30 07:11:35;;;;;;;2.83;2.63;;;24.80;99.50;;;;;;4962524;28;20449;-81
2023/05/30 07:14:02;;;;;;;6.67;3.00;;;25.40;97.00;;;;;;4962867;28;20558;-85
2023/05/30 07:16:31;;;;;;;5.63;3.10;;;25.90;91.60;;;;;;4960603;28;20441;-81
2023/05/30 07:18:58;;;;;;;6.80;3.20;;;25.80;91.90;;;;;;4962716;28;20500;-80
2023/05/30 07:21:38;;;;;;;5.03;2.93;;;26.70;88.60;;;;;;4959798;29;20445;-84
2023/05/30 07:24:06;;;;;;;6.70;2.97;;;27.20;85.10;;;;;;4963674;28;20457;-80
2023/05/30 07:26:34;;;;;;;8.10;3.00;;;27.70;77.60;;;;;;4971952;28;20472;-82
2023/05/30 07:29:01;;;;;;;5.37;3.07;;;28.30;72.40;;;;;;4973388;28;20542;-83
2023/05/30 07:31:28;;;;;;;6.60;3.00;;;29.00;67.70;;;;;;4967366;29;20465;-79
2023/05/30 07:33:56;;;;;;;8.17;3.40;;;30.10;62.30;;;;;;4963756;28;20500;-79
2023/05/30 07:36:23;;;;;;;3.87;2.30;;;30.70;59.30;;;;;;4961321;28;20476;-82
2023/05/30 07:38:50;;;;;;;4.63;2.40;;;31.30;56.30;;;;;;4960167;28;20445;-83
2023/05/30 07:41:18;;;;;;;6.63;2.60;;;30.80;55.50;;;;;;4962169;28;20450;-84
2023/05/30 07:43:45;;;;;;;3.90;2.47;;;30.60;55.70;;;;;;4962636;28;20476;-84
2023/05/30 07:46:12;;;;;;;7.20;3.20;;;29.50;55.60;;;;;;4962133;28;20453;-83
2023/05/30 07:48:40;;;;;;;4.60;2.40;;;28.90;57.20;;;;;;4962364;28;20827;-85
2023/05/30 07:51:09;;;;;;;4.37;2.53;;;29.10;58.00;;;;;;4961302;28;20449;-81
2023/05/30 07:53:36;;;;;;;3.17;2.20;;;29.30;57.60;;;;;;4962137;28;20591;-82
2023/05/30 07:56:04;;;;;;;6.30;2.83;;;29.70;57.10;;;;;;4962506;28;20460;-81
2023/05/30 07:58:30;;;;;;;3.63;2.80;;;29.80;56.10;;;;;;4961057;29;20788;-86
2023/05/30 08:00:58;;;;;;;3.07;2.00;;;30.20;55.00;;;;;;4960703;28;20674;-81
2023/05/30 08:03:25;;;;;;;3.87;2.10;;;28.00;55.30;;;;;;4961375;28;20500;-82
2023/05/30 08:05:53;;;;;;;3.00;2.50;;;27.90;56.20;;;;;;4960496;28;20488;-87
2023/05/30 08:08:20;;;;;;;3.63;2.30;;;28.30;56.10;;;;;;4960905;28;20449;-80
2023/05/30 08:10:47;;;;;;;8.20;3.50;;;27.40;57.00;;;;;;4970314;28;20453;-84
2023/05/30 08:13:14;;;;;;;5.20;2.63;;;27.40;59.10;;;;;;4960828;28;20496;-83
2023/05/30 08:15:43;;;;;;;3.23;2.67;;;28.10;58.20;;;;;;4959221;28;20787;-81
2023/05/30 08:18:11;;;;;;;4.70;2.83;;;28.80;57.70;;;;;;4959359;28;20446;-80
2023/05/30 08:20:38;;;;;;;4.33;2.57;;;30.10;56.10;;;;;;4960590;28;20645;-83
2023/05/30 08:23:05;;;;;;;9.30;2.27;;;29.20;55.40;;;;;;4959822;29;20784;-82
2023/05/30 08:25:35;;;;;;;7.40;2.90;;;29.60;55.40;;;;;;4958761;28;20653;-85
2023/05/30 08:28:03;;;;;;;3.87;2.63;;;29.20;54.30;;;;;;4960927;28;20450;-83
2023/05/30 08:30:31;;;;;;;6.93;2.10;;;29.50;55.50;;;;;;4960330;28;20461;-81
2023/05/30 08:33:01;;;;;;;6.63;2.40;;;30.70;52.90;;;;;;4958959;28;20504;-83
2023/05/30 08:35:28;;;;;;;6.87;1.90;;;31.70;50.60;;;;;;4959093;28;20488;-86
2023/05/30 08:37:57;;;;;;;13.43;2.80;;;31.50;50.30;;;;;;4960523;28;20449;-83
2023/05/30 08:40:25;;;;;;;3.87;2.40;;;31.30;49.30;;;;;;4960928;28;20461;-81
2023/05/30 08:42:53;;;;;;;6.20;2.60;;;29.50;51.30;;;;;;4959919;28;20464;-81
2023/05/30 08:45:20;;;;;;;5.20;2.17;;;30.60;50.80;;;;;;4958633;28;20466;-81
2023/05/30 08:47:51;;;;;;;7.40;2.53;;;31.10;47.80;;;;;;4961496;28;20597;-81
2023/05/30 08:50:22;;;;;;;5.03;3.00;;;30.50;49.00;;;;;;4961290;28;20451;-85
2023/05/30 08:52:52;;;;;;;3.50;2.43;;;30.80;47.40;;;;;;4959628;28;20456;-81
2023/05/30 08:55:30;;;;;;;4.23;2.87;;;31.70;46.20;;;;;;4959796;28;20703;-84
2023/05/30 08:58:08;;;;;;;7.70;2.40;;;33.00;45.70;;;;;;4960089;28;20804;-81
2023/05/30 09:00:37;;;;;;;5.90;3.70;;;34.20;45.10;;;;;;4959554;28;20453;-84
2023/05/30 09:03:05;;;;;;;4.17;2.50;;;34.40;42.90;;;;;;4960312;28;20448;-82
2023/05/30 09:05:34;;;;;;;7.40;2.27;;;33.30;42.80;;;;;;4962379;28;20437;-82
2023/05/30 09:08:02;;;;;;;3.60;2.40;;;32.30;42.80;;;;;;4959670;28;20457;-86
2023/05/30 09:10:30;;;;;;;3.63;2.67;;;31.30;44.80;;;;;;4961180;28;20441;-87
2023/05/30 09:13:00;;;;;;;3.47;2.37;;;29.80;45.30;;;;;;4963959;28;20823;-84
2023/05/30 09:15:27;;;;;;;4.17;2.60;;;30.80;45.30;;;;;;4973976;28;20461;-81
2023/05/30 09:17:55;;;;;;;7.80;2.53;;;29.90;45.70;;;;;;4963357;28;20450;-86
2023/05/30 09:20:22;;;;;;;4.40;2.33;;;30.20;46.40;;;;;;4962943;28;20457;-87
2023/05/30 09:22:50;;;;;;;2.73;1.83;;;30.20;46.70;;;;;;4965017;28;20453;-83
2023/05/30 09:25:17;;;;;;;6.00;2.33;;;31.10;44.40;;;;;;4964726;28;20468;-85
2023/05/30 09:27:50;;;;;;;3.70;2.73;;;32.50;43.80;;;;;;4964597;28;20457;-84
2023/05/30 09:30:18;;;;;;;5.40;2.43;;;32.40;43.60;;;;;;4966729;28;20444;-83
2023/05/30 09:33:03;;;;;;;5.13;2.27;;;31.50;44.00;;;;;;4967243;28;20453;-84
2023/05/30 09:35:30;;;;;;;7.93;2.90;;;28.90;47.00;;;;;;4967595;28;20475;-84
2023/05/30 09:38:03;;;;;;;4.77;3.17;;;26.90;50.10;;;;;;4972451;28;20432;-83
2023/05/30 09:40:30;;;;;;;4.90;2.10;;;25.10;51.30;;;;;;4969274;28;20433;-84
2023/05/30 09:42:57;;;;;;;6.40;2.50;;;23.50;52.70;;;;;;4969127;28;20453;-84
2023/05/30 09:45:25;;;;;;;2.93;2.00;;;22.30;54.10;;;;;;4968623;28;20449;-82
2023/05/30 09:47:52;;;;;;;4.73;2.33;;;21.40;55.10;;;;;;4969042;28;20460;-83
2023/05/30 09:50:24;;;;;;;3.33;1.80;;;20.80;57.80;;;;;;4973598;28;20464;-81
2023/05/30 09:52:56;;;;;;;3.93;2.40;;;20.40;59.00;;;;;;4972575;28;20492;-82
2023/05/30 09:55:27;;;;;;;4.90;2.97;;;19.80;62.00;;;;;;4975374;28;20450;-82
2023/05/30 09:57:54;;;;;;;7.10;3.83;;;20.00;63.50;;;;;;4973920;28;20425;-83
2023/05/30 10:00:23;;;;;;;4.70;2.77;;;20.40;63.60;;;;;;4970152;29;20432;-85
2023/05/30 10:02:53;;;;;;;3.17;2.87;;;20.40;62.10;;;;;;4964325;28;20452;-81
2023/05/30 10:05:25;;;;;;;3.63;2.00;;;20.40;61.60;;;;;;4967341;28;20548;-82
2023/05/30 10:07:57;;;;;;;4.60;1.60;;;20.70;59.80;;;;;;4968409;28;20491;-80
2023/05/30 10:10:24;;;;;;;3.00;1.80;;;20.40;59.00;;;;;;4970569;28;20439;-84
2023/05/30 10:12:55;;;;;;;6.63;2.23;;;20.40;61.70;;;;;;4970726;29;20484;-82
2023/05/30 10:15:24;;;;;;;4.33;1.60;;;20.10;62.70;;;;;;4963243;28;20477;-84
2023/05/30 10:18:23;;;;;;;;;;;;;;;;;;;;;
2023/05/30 10:21:03;;;;;;;5.23;2.20;;;20.10;64.10;;;;;;4957475;28;20836;-83
2023/05/30 10:23:30;;;;;;;3.77;2.50;;;20.00;64.00;;;;;;4964171;28;20508;-81
2023/05/30 10:26:01;;;;;;;4.60;2.70;;;19.70;63.70;;;;;;4964427;29;20452;-81
2023/05/30 10:28:30;;;;;;;6.37;2.10;;;19.80;64.20;;;;;;4964191;28;20442;-85
2023/05/30 10:31:02;;;;;;;3.80;2.30;;;20.10;64.10;;;;;;4964705;28;20450;-88
2023/05/30 10:33:35;;;;;;;3.20;1.80;;;19.90;62.30;;;;;;4963520;28;20437;-83
2023/05/30 10:36:22;;;;;;;9.93;2.60;;;19.90;63.10;;;;;;4963494;28;20930;-83
2023/05/30 10:39:22;;;;;;;5.00;1.87;;;20.00;64.80;;;;;;4963211;28;20424;-84
2023/05/30 10:42:12;;;;;;;3.00;1.90;;;20.00;65.10;;;;;;4964350;29;20650;-88
2023/05/30 10:45:10;;;;;;;6.73;1.87;;;19.80;63.60;;;;;;4934513;29;20440;-82
2023/05/30 10:48:26;;;;;;;5.50;2.17;;;20.00;65.50;;;;;;4962590;28;20445;-86
2023/05/30 10:50:59;;;;;;;2.43;1.77;;;20.10;62.00;;;;;;4912926;29;20437;-87
2023/05/30 10:53:47;;;;;;;3.30;2.13;;;20.30;63.20;;;;;;4963465;29;20457;-82
2023/05/30 10:56:27;;;;;;;2.53;2.00;;;20.30;62.10;;;;;;4965235;28;20448;-83
2023/05/30 10:58:56;;;;;;;4.57;2.33;;;20.20;60.70;;;;;;4957394;29;20416;-87
2023/05/30 11:01:32;;;;;;;3.90;2.07;;;20.10;62.50;;;;;;4964373;28;20457;-83
2023/05/30 11:04:04;;;;;;;6.67;2.07;;;20.30;61.60;;;;;;4964294;29;20713;-84
2023/05/30 11:06:36;;;;;;;4.87;3.07;;;20.40;61.70;;;;;;4963915;28;20731;-84
2023/05/30 11:09:05;;;;;;;3.57;2.27;;;20.50;59.40;;;;;;4964089;29;20444;-83
2023/05/30 11:11:41;;;;;;;3.33;1.90;;;20.40;56.70;;;;;;4965674;28;20439;-84
2023/05/30 11:14:10;;;;;;;6.23;2.90;;;20.20;55.10;;;;;;4974983;28;20451;-85
2023/05/30 11:17:03;;;;;;;1.90;1.80;;;20.10;54.90;;;;;;4974513;28;20428;-84
2023/05/30 11:19:38;;;;;;;3.73;2.27;;;20.00;53.10;;;;;;4964294;28;20777;-86
2023/05/30 11:22:15;;;;;;;3.23;2.30;;;19.90;54.90;;;;;;4958358;28;20904;-83
2023/05/30 11:24:44;;;;;;;2.90;1.90;;;20.10;55.00;;;;;;4967246;28;20468;-82
2023/05/30 11:27:14;;;;;;;4.40;2.30;;;20.10;51.90;;;;;;4968841;28;20424;-86
2023/05/30 11:29:49;;;;;;;5.03;1.73;;;20.10;52.50;;;;;;4968132;28;20420;-79
2023/05/30 11:32:23;;;;;;;3.73;1.83;;;20.00;53.90;;;;;;4966269;28;20484;-84
2023/05/30 11:35:03;;;;;;;6.50;2.60;;;20.30;55.40;;;;;;4982826;28;20479;-83
2023/05/30 11:37:33;;;;;;;3.10;1.70;;;20.30;56.70;;;;;;4962611;28;20437;-84
2023/05/30 11:40:01;;;;;;;2.93;1.73;;;20.30;56.40;;;;;;4965875;28;20480;-80
2023/05/30 11:42:29;;;;;;;6.67;2.63;;;20.40;57.80;;;;;;4964631;28;20469;-82
2023/05/30 11:44:56;;;;;;;7.67;2.30;;;20.30;58.50;;;;;;4962462;28;20467;-80
2023/05/30 11:47:23;;;;;;;10.97;2.40;;;20.30;57.80;;;;;;4962600;28;20449;-88
2023/05/30 11:49:57;;;;;;;3.27;2.33;;;20.30;56.10;;;;;;4962885;28;20457;-87
2023/05/30 11:52:24;;;;;;;1.90;1.73;;;20.50;56.50;;;;;;4964528;28;20517;-85
2023/05/30 11:54:59;;;;;;;7.23;1.93;;;20.70;57.20;;;;;;4956416;28;20456;-84
2023/05/30 11:57:28;;;;;;;2.50;1.90;;;20.60;56.30;;;;;;4964593;28;20449;-87
2023/05/30 11:59:55;;;;;;;4.40;1.70;;;20.70;56.50;;;;;;4963754;28;20492;-86
2023/05/30 12:02:29;;;;;;;3.03;1.97;;;20.80;56.20;;;;;;4963310;28;20455;-85
2023/05/30 12:05:03;;;;;;;3.53;2.17;;;20.80;55.30;;;;;;4969135;29;20480;-85
2023/05/30 12:07:32;;;;;;;3.67;2.10;;;20.70;51.30;;;;;;4966236;28;20520;-84
2023/05/30 12:10:00;;;;;;;4.80;2.57;;;20.70;51.20;;;;;;4964272;28;20816;-85
2023/05/30 12:12:28;;;;;;;4.57;2.07;;;20.60;51.90;;;;;;4962497;28;20434;-83
2023/05/30 12:14:55;;;;;;;2.93;1.50;;;20.50;52.00;;;;;;4962706;28;20754;-84
2023/05/30 12:17:25;;;;;;;4.70;1.90;;;20.60;53.10;;;;;;4963298;28;20427;-84
2023/05/30 12:20:09;;;;;;;3.00;2.23;;;20.40;54.30;;;;;;4962648;29;20424;-83
2023/05/30 12:22:44;;;;;;;1.87;1.43;;;20.40;54.90;;;;;;4960762;28;20439;-83
2023/05/30 12:25:13;;;;;;;2.43;2.00;;;20.40;53.00;;;;;;4969847;28;20469;-87
2023/05/30 12:27:46;;;;;;;3.63;2.57;;;20.50;53.00;;;;;;4962757;29;20460;-84
2023/05/30 12:30:15;;;;;;;3.93;1.93;;;20.50;51.80;;;;;;4959478;29;20420;-84
2023/05/30 12:32:42;;;;;;;4.67;2.40;;;20.50;53.00;;;;;;4962305;29;20448;-85
2023/05/30 12:35:12;;;;;;;4.87;2.23;;;20.50;52.30;;;;;;4961509;28;20508;-84
2023/05/30 12:37:39;;;;;;;4.97;2.00;;;20.50;52.90;;;;;;4961710;28;20423;-86
2023/05/30 12:40:08;;;;;;;7.13;2.53;;;20.50;53.50;;;;;;4961442;28;20614;-83
2023/05/30 12:42:36;;;;;;;5.77;2.73;;;20.70;54.60;;;;;;4963442;28;20453;-88
2023/05/30 12:45:07;;;;;;;4.00;2.17;;;20.80;55.10;;;;;;4964100;29;20499;-86
2023/05/30 12:47:37;;;;;;;5.83;2.10;;;20.90;54.60;;;;;;4961902;28;20449;-87
2023/05/30 12:50:06;;;;;;;3.50;2.30;;;20.80;53.10;;;;;;4962135;28;20783;-83
2023/05/30 12:52:33;;;;;;;3.50;2.57;;;20.70;55.60;;;;;;4962345;28;20772;-85
2023/05/30 12:55:00;;;;;;;5.93;2.40;;;20.70;56.10;;;;;;4958729;28;20452;-84
2023/05/30 12:57:28;;;;;;;4.53;2.17;;;20.80;56.60;;;;;;4961582;28;20778;-87
2023/05/30 13:00:03;;;;;;;5.23;2.20;;;21.00;55.40;;;;;;4955948;28;20526;-82
2023/05/30 13:02:29;;;;;;;4.90;2.43;;;21.00;53.10;;;;;;4961711;28;20423;-81